Resolute — WTW2234 — position and weather

sailwx.info

Track history (hours):
 
Tides and Currents Weather Stations Pressure Air Temp Water Temp Dewpoint Dewpoint Depression Visibility Wind Speed Wind Dir Waves Ship Positions

Resolute

Owner: Providence Steamboat Co., PROVIDENCE, RI. More information available from US FCC via Universal Licensing System and Coast Guard Vessel Documentation Center.

Last reported at 2014-Nov-01 06:33 UTC. Time now 2014-Nov-01 13:49 UTC.
Position N 40°49' W 073°47'.

Length 30 m; draft 4 m.

Type: Tug. MMSI: 367091630.

Date/timePositionNaut miles runAvg speedWind from/ knotsBaromVisibWave heightAir tempDewpointWater temp
2014-Nov-01 06:33N 40°49' W 073°47'0 0.0
2014-Nov-01 02:25N 40°48' W 073°47'0 0.0
2014-Nov-01 01:31N 40°48' W 073°47'2 1.2
2014-Oct-31 23:33N 40°51' W 073°46'6 2.9
2014-Oct-31 21:33N 40°48' W 073°52'5 5.1
2014-Oct-31 20:34N 40°45' W 073°58'6 6.1
2014-Oct-31 19:34N 40°40' W 074°03'7 6.9
2014-Oct-31 18:33N 40°38' W 074°11'2 1.1
2014-Oct-31 16:23N 40°36' W 074°12'3 3.5
2014-Oct-31 15:34N 40°38' W 074°10'0 0.0
2014-Oct-31 14:34N 40°38' W 074°10'0 0.0
2014-Oct-31 13:33N 40°38' W 074°10'0 0.0
2014-Oct-31 12:33N 40°38' W 074°10'1 0.8
2014-Oct-31 11:34N 40°39' W 074°11'1 0.6
2014-Oct-31 10:33N 40°39' W 074°10'4 4.3
2014-Oct-31 09:34N 40°40' W 074°05'0 0.3
2014-Oct-31 08:34N 40°40' W 074°05'0 0.0
2014-Oct-31 07:33N 40°40' W 074°05'0 0.2
2014-Oct-31 06:34N 40°40' W 074°05'0 0.5
2014-Oct-31 05:33N 40°40' W 074°04'0 0.0
2014-Oct-31 04:34N 40°40' W 074°04'0 0.0
2014-Oct-31 03:34N 40°40' W 074°04'0 0.0
2014-Oct-31 02:34N 40°40' W 074°04'0 0.0
2014-Oct-31 01:33N 40°40' W 074°04'0 0.0
2014-Oct-31 00:34N 40°40' W 074°04'2 2.1
2014-Oct-30 23:34N 40°39' W 074°07'2 2.4
2014-Oct-30 22:32N 40°41' W 074°08'2 1.6
2014-Oct-30 21:33N 40°39' W 074°09'1 1.2
2014-Oct-30 20:33N 40°38' W 074°10'0 0.0
2014-Oct-30 19:34N 40°38' W 074°10'0 0.0
2014-Oct-30 18:33N 40°38' W 074°10'2 2.2
2014-Oct-30 17:34N 40°39' W 074°07'3 2.5
2014-Oct-30 16:34N 40°40' W 074°04'1 0.7
2014-Oct-30 15:34N 40°40' W 074°05'0 0.1
2014-Oct-30 14:34N 40°40' W 074°05'4 4.1
2014-Oct-30 13:34N 40°39' W 074°10'2 0.9
2014-Oct-30 11:32N 40°38' W 074°12'0 0.2
2014-Oct-30 10:33N 40°38' W 074°12'2 1.8
2014-Oct-30 09:33N 40°38' W 074°10'0 0.0
2014-Oct-30 08:34N 40°38' W 074°10'0 0.0
2014-Oct-30 07:33N 40°38' W 074°10'0 0.0
2014-Oct-30 06:34N 40°38' W 074°10'0 0.0
2014-Oct-30 05:34N 40°38' W 074°10'0 0.0
2014-Oct-30 04:34N 40°38' W 074°10'0 0.0
2014-Oct-30 03:34N 40°38' W 074°10'0 0.0
2014-Oct-30 02:34N 40°38' W 074°10'0 0.0
2014-Oct-30 01:34N 40°38' W 074°10'0 0.0
2014-Oct-30 00:34N 40°38' W 074°10'0 0.0
2014-Oct-29 23:34N 40°38' W 074°10'0 0.0
2014-Oct-29 22:34N 40°38' W 074°10'0 0.0
2014-Oct-29 21:34N 40°38' W 074°10'0 0.0
2014-Oct-29 20:34N 40°38' W 074°10'3 0.7
2014-Oct-29 16:30N 40°36' W 074°12'3 3.0
2014-Oct-29 15:33N 40°38' W 074°10'0 0.0
2014-Oct-29 14:34N 40°38' W 074°10'0 0.0
2014-Oct-29 13:33N 40°38' W 074°10'0 0.0
2014-Oct-29 12:34N 40°38' W 074°10'0 0.0
2014-Oct-29 11:34N 40°38' W 074°10'4 4.4
2014-Oct-29 10:33N 40°40' W 074°04'1 1.0
2014-Oct-29 09:34N 40°40' W 074°05'0 0.1
2014-Oct-29 08:33N 40°40' W 074°05'0 0.2
2014-Oct-29 07:34N 40°40' W 074°05'0 0.0
2014-Oct-29 06:34N 40°40' W 074°05'0 0.0
2014-Oct-29 05:34N 40°40' W 074°05'0 0.0
2014-Oct-29 04:34N 40°40' W 074°05'0 0.0
2014-Oct-29 03:34N 40°40' W 074°05'0 0.0
2014-Oct-29 02:34N 40°40' W 074°05'0 0.0
2014-Oct-29 01:34N 40°40' W 074°05'0 0.0
2014-Oct-29 00:34N 40°40' W 074°05'0 0.0
2014-Oct-28 23:34N 40°40' W 074°05'0 0.0
2014-Oct-28 22:34N 40°40' W 074°05'0 0.0
2014-Oct-28 21:34N 40°40' W 074°05'2 1.9
2014-Oct-28 20:34N 40°39' W 074°03'1 1.3
2014-Oct-28 19:34N 40°40' W 074°04'2 2.0
2014-Oct-28 18:34N 40°38' W 074°04'4 4.1
2014-Oct-28 17:34N 40°40' W 074°08'0 0.2
2014-Oct-28 16:34N 40°40' W 074°08'0 0.2
2014-Oct-28 15:34N 40°41' W 074°09'2 2.4
2014-Oct-28 14:34N 40°38' W 074°10'0 0.0
2014-Oct-28 13:34N 40°38' W 074°10'0 0.0
2014-Oct-28 12:34N 40°38' W 074°10'0 0.0
2014-Oct-28 11:34N 40°38' W 074°10'2 2.5
2014-Oct-28 10:33N 40°41' W 074°09'2 2.5
2014-Oct-28 09:34N 40°38' W 074°10'0 0.0
2014-Oct-28 08:33N 40°38' W 074°10'0 0.0
2014-Oct-28 07:34N 40°38' W 074°10'3 3.4
2014-Oct-28 06:34N 40°39' W 074°05'0 0.1
2014-Oct-28 05:34N 40°39' W 074°05'3 3.4
2014-Oct-28 04:33N 40°38' W 074°10'0 0.0
2014-Oct-28 03:34N 40°38' W 074°10'2 2.3
2014-Oct-28 02:34N 40°41' W 074°09'0 0.2
2014-Oct-28 01:34N 40°40' W 074°08'2 2.3
2014-Oct-28 00:34N 40°38' W 074°10'0 0.0
2014-Oct-27 23:34N 40°38' W 074°10'0 0.0
2014-Oct-27 22:34N 40°38' W 074°10'0 0.0
2014-Oct-27 21:34N 40°38' W 074°10'0 0.0
2014-Oct-27 20:32N 40°38' W 074°10'0 0.0
2014-Oct-27 19:24N 40°38' W 074°10'0 0.0
2014-Oct-27 18:30N 40°38' W 074°10'0 0.0
2014-Oct-27 17:34N 40°38' W 074°10'0 0.0
2014-Oct-27 16:34N 40°38' W 074°10'2 1.9
2014-Oct-27 15:33N 40°38' W 074°12'5 4.7
2014-Oct-27 14:34N 40°41' W 074°08'2 1.6
2014-Oct-27 13:28N 40°40' W 074°09'0 0.0
2014-Oct-27 12:20N 40°40' W 074°09'0 0.0
2014-Oct-27 11:32N 40°40' W 074°09'1 0.7
2014-Oct-27 10:33N 40°40' W 074°08'4 1.7
2014-Oct-27 08:17N 40°37' W 074°12'2 2.5
2014-Oct-27 07:33N 40°39' W 074°11'1 0.7
2014-Oct-27 06:34N 40°38' W 074°10'0 0.0
2014-Oct-27 05:34N 40°38' W 074°10'1 0.5
2014-Oct-27 04:32N 40°38' W 074°09'4 4.2
2014-Oct-27 03:33N 40°40' W 074°04'5 4.4
2014-Oct-27 02:32N 40°38' W 074°10'0 0.0
2014-Oct-27 01:33N 40°38' W 074°10'0 0.0
2014-Oct-27 00:33N 40°38' W 074°10'0 0.0
2014-Oct-26 23:33N 40°38' W 074°10'0 0.0
2014-Oct-26 22:34N 40°38' W 074°10'1 1.3
2014-Oct-26 21:34N 40°40' W 074°09'5 5.0
2014-Oct-26 20:34N 40°37' W 074°03'5 5.3
2014-Oct-26 19:33N 40°38' W 074°10'0 0.0
2014-Oct-26 18:34N 40°38' W 074°10'0 0.0
2014-Oct-26 17:34N 40°38' W 074°10'0 0.0
2014-Oct-26 16:33N 40°38' W 074°10'0 0.0
2014-Oct-26 15:34N 40°38' W 074°10'0 0.0
2014-Oct-26 14:34N 40°38' W 074°10'0 0.0
2014-Oct-26 13:33N 40°38' W 074°10'2 2.2
2014-Oct-26 12:34N 40°40' W 074°08'0 0.2
2014-Oct-26 11:34N 40°40' W 074°08'1 0.8
2014-Oct-26 10:33N 40°40' W 074°09'1 0.6
2014-Oct-26 09:33N 40°40' W 074°09'5 4.6
2014-Oct-26 08:34N 40°38' W 074°03'5 5.2
2014-Oct-26 07:34N 40°38' W 074°10'0 0.0
2014-Oct-26 06:34N 40°38' W 074°10'0 0.0
2014-Oct-26 05:34N 40°38' W 074°10'0 0.0
2014-Oct-26 04:34N 40°38' W 074°10'0 0.0
2014-Oct-26 03:34N 40°38' W 074°10'1 1.0
2014-Oct-26 02:33N 40°39' W 074°09'0 0.5
2014-Oct-26 01:33N 40°40' W 074°09'0 0.5
2014-Oct-26 00:34N 40°39' W 074°09'1 1.0
2014-Oct-25 23:34N 40°38' W 074°10'0 0.0
2014-Oct-25 22:33N 40°38' W 074°10'0 0.0
2014-Oct-25 21:33N 40°38' W 074°10'3 3.0
2014-Oct-25 20:33N 40°41' W 074°08'1 1.3
2014-Oct-25 19:32N 40°40' W 074°08'5 4.6
2014-Oct-25 18:28N 40°38' W 074°03'5 6.0
2014-Oct-25 17:33N 40°38' W 074°10'0 0.0
2014-Oct-25 16:32N 40°38' W 074°10'0 0.0
2014-Oct-25 15:34N 40°38' W 074°10'0 0.0
2014-Oct-25 14:28N 40°38' W 074°10'0 0.0
2014-Oct-25 13:32N 40°38' W 074°10'0 0.0
2014-Oct-25 12:34N 40°38' W 074°10'0 0.0
2014-Oct-25 11:34N 40°38' W 074°10'1 0.9
2014-Oct-25 10:34N 40°39' W 074°09'6 5.9
2014-Oct-25 09:29N 40°33' W 074°13'4 4.3
2014-Oct-25 08:33N 40°37' W 074°12'2 2.1
2014-Oct-25 07:34N 40°38' W 074°10'0 0.0
2014-Oct-25 06:33N 40°38' W 074°10'0 0.0
2014-Oct-25 05:34N 40°38' W 074°10'0 0.0
2014-Oct-25 04:33N 40°38' W 074°10'0 0.0
2014-Oct-25 03:34N 40°38' W 074°10'0 0.0
2014-Oct-25 02:33N 40°38' W 074°10'0 0.0
2014-Oct-25 01:34N 40°38' W 074°10'0 0.0
2014-Oct-24 23:33N 40°38' W 074°10'7 7.1
2014-Oct-24 22:34N 40°40' W 074°01'0 0.3
2014-Oct-24 21:34N 40°40' W 074°00'4 3.7
2014-Oct-24 20:34N 40°39' W 074°05'1 1.3
2014-Oct-24 19:33N 40°40' W 074°03'0 0.2
2014-Oct-24 18:34N 40°40' W 074°04'1 0.9
2014-Oct-24 17:34N 40°40' W 074°03'5 4.6
2014-Oct-24 16:33N 40°39' W 074°09'2 1.6
2014-Oct-24 15:34N 40°41' W 074°09'2 2.5
2014-Oct-24 14:34N 40°38' W 074°10'5 4.5
2014-Oct-24 13:33N 40°40' W 074°04'0 0.0
2014-Oct-24 12:34N 40°40' W 074°04'1 0.6
2014-Oct-24 11:34N 40°40' W 074°04'2 1.9
2014-Oct-24 10:34N 40°39' W 074°05'0 0.4
2014-Oct-24 09:33N 40°39' W 074°06'0 0.0
2014-Oct-24 08:33N 40°39' W 074°06'0 0.0
2014-Oct-24 06:32N 40°39' W 074°06'0 0.0
2014-Oct-24 05:32N 40°39' W 074°06'3 2.8
2014-Oct-24 04:34N 40°40' W 074°03'0 0.0
2014-Oct-24 03:34N 40°40' W 074°03'0 0.0
2014-Oct-24 02:34N 40°40' W 074°03'1 1.4
2014-Oct-24 01:34N 40°40' W 074°05'3 2.5
2014-Oct-24 00:34N 40°39' W 074°07'2 2.0
2014-Oct-23 23:33N 40°38' W 074°10'1 0.3
2014-Oct-23 21:34N 40°39' W 074°11'6 4.8
2014-Oct-23 20:18N 40°33' W 074°14'0 0.4
2014-Oct-23 19:33N 40°33' W 074°14'0 0.0
2014-Oct-23 18:19N 40°33' W 074°14'0 0.0
2014-Oct-23 17:32N 40°33' W 074°14'5 4.7
2014-Oct-23 16:30N 40°38' W 074°12'0 0.0
2014-Oct-23 15:29N 40°38' W 074°12'2 2.0
2014-Oct-23 14:34N 40°38' W 074°10'0 0.0
2014-Oct-23 13:33N 40°38' W 074°10'0 0.0
2014-Oct-23 12:34N 40°38' W 074°10'2 1.7
2014-Oct-23 11:34N 40°38' W 074°12'0 0.2
2014-Oct-23 10:34N 40°38' W 074°12'2 1.5
2014-Oct-23 09:33N 40°38' W 074°10'1 0.6
2014-Oct-23 08:33N 40°39' W 074°09'2 2.4
2014-Oct-23 07:33N 40°41' W 074°09'2 1.6
2014-Oct-23 06:34N 40°39' W 074°09'1 0.9
2014-Oct-23 05:19N 40°38' W 074°10'0 0.0
2014-Oct-23 04:33N 40°38' W 074°10'0 0.0
2014-Oct-23 03:06N 40°38' W 074°10'0 0.0
2014-Oct-23 02:28N 40°38' W 074°10'0 0.0
2014-Oct-23 01:34N 40°38' W 074°10'0 0.0
2014-Oct-23 00:33N 40°38' W 074°10'0 0.0
2014-Oct-22 23:33N 40°38' W 074°10'0 0.0
2014-Oct-22 22:33N 40°38' W 074°10'2 1.7
2014-Oct-22 21:33N 40°38' W 074°12'2 2.4
2014-Oct-22 20:33N 40°39' W 074°09'5 4.9
2014-Oct-22 19:34N 40°40' W 074°03'2 2.2
2014-Oct-22 18:34N 40°38' W 074°04'1 0.6
2014-Oct-22 17:34N 40°39' W 074°03'1 1.5
2014-Oct-22 16:34N 40°39' W 074°05'4 3.7
2014-Oct-22 15:34N 40°38' W 074°10'5 4.9
2014-Oct-22 14:33N 40°38' W 074°03'5 4.8
2014-Oct-22 13:34N 40°38' W 074°10'4 4.3
2014-Oct-22 12:34N 40°40' W 074°04'0 0.4
2014-Oct-22 11:34N 40°40' W 074°04'1 1.2
2014-Oct-22 10:33N 40°39' W 074°05'0 0.1
2014-Oct-22 09:34N 40°39' W 074°05'2 2.3
2014-Oct-22 08:34N 40°40' W 074°03'5 4.3
2014-Oct-22 07:29N 40°40' W 074°09'0 0.0
2014-Oct-22 06:34N 40°40' W 074°09'  
Track history (hours):
 
Tides and Currents Weather Stations Pressure Air Temp Water Temp Dewpoint Dewpoint Depression Visibility Wind Speed Wind Dir Waves Ship Positions

Resolute

Owner: Providence Steamboat Co., PROVIDENCE, RI. More information available from US FCC via Universal Licensing System and Coast Guard Vessel Documentation Center.

Last reported at 2014-Nov-01 06:33 UTC. Time now 2014-Nov-01 13:49 UTC.
Position N 40°49' W 073°47'.

Length 30 m; draft 4 m.

Type: Tug. MMSI: 367091630.

Date/timePositionNaut miles runAvg speedWind from/ knotsBaromVisibWave heightAir tempDewpointWater temp
2014-Nov-01 06:33N 40°49' W 073°47'0 0.0
2014-Nov-01 02:25N 40°48' W 073°47'0 0.0
2014-Nov-01 01:31N 40°48' W 073°47'2 1.2
2014-Oct-31 23:33N 40°51' W 073°46'6 2.9
2014-Oct-31 21:33N 40°48' W 073°52'5 5.1
2014-Oct-31 20:34N 40°45' W 073°58'6 6.1
2014-Oct-31 19:34N 40°40' W 074°03'7 6.9
2014-Oct-31 18:33N 40°38' W 074°11'2 1.1
2014-Oct-31 16:23N 40°36' W 074°12'3 3.5
2014-Oct-31 15:34N 40°38' W 074°10'0 0.0
2014-Oct-31 14:34N 40°38' W 074°10'0 0.0
2014-Oct-31 13:33N 40°38' W 074°10'0 0.0
2014-Oct-31 12:33N 40°38' W 074°10'1 0.8
2014-Oct-31 11:34N 40°39' W 074°11'1 0.6
2014-Oct-31 10:33N 40°39' W 074°10'4 4.3
2014-Oct-31 09:34N 40°40' W 074°05'0 0.3
2014-Oct-31 08:34N 40°40' W 074°05'0 0.0
2014-Oct-31 07:33N 40°40' W 074°05'0 0.2
2014-Oct-31 06:34N 40°40' W 074°05'0 0.5
2014-Oct-31 05:33N 40°40' W 074°04'0 0.0
2014-Oct-31 04:34N 40°40' W 074°04'0 0.0
2014-Oct-31 03:34N 40°40' W 074°04'0 0.0
2014-Oct-31 02:34N 40°40' W 074°04'0 0.0
2014-Oct-31 01:33N 40°40' W 074°04'0 0.0
2014-Oct-31 00:34N 40°40' W 074°04'2 2.1
2014-Oct-30 23:34N 40°39' W 074°07'2 2.4
2014-Oct-30 22:32N 40°41' W 074°08'2 1.6
2014-Oct-30 21:33N 40°39' W 074°09'1 1.2
2014-Oct-30 20:33N 40°38' W 074°10'0 0.0
2014-Oct-30 19:34N 40°38' W 074°10'0 0.0
2014-Oct-30 18:33N 40°38' W 074°10'2 2.2
2014-Oct-30 17:34N 40°39' W 074°07'3 2.5
2014-Oct-30 16:34N 40°40' W 074°04'1 0.7
2014-Oct-30 15:34N 40°40' W 074°05'0 0.1
2014-Oct-30 14:34N 40°40' W 074°05'4 4.1
2014-Oct-30 13:34N 40°39' W 074°10'2 0.9
2014-Oct-30 11:32N 40°38' W 074°12'0 0.2
2014-Oct-30 10:33N 40°38' W 074°12'2 1.8
2014-Oct-30 09:33N 40°38' W 074°10'0 0.0
2014-Oct-30 08:34N 40°38' W 074°10'0 0.0
2014-Oct-30 07:33N 40°38' W 074°10'0 0.0
2014-Oct-30 06:34N 40°38' W 074°10'0 0.0
2014-Oct-30 05:34N 40°38' W 074°10'0 0.0
2014-Oct-30 04:34N 40°38' W 074°10'0 0.0
2014-Oct-30 03:34N 40°38' W 074°10'0 0.0
2014-Oct-30 02:34N 40°38' W 074°10'0 0.0
2014-Oct-30 01:34N 40°38' W 074°10'0 0.0
2014-Oct-30 00:34N 40°38' W 074°10'0 0.0
2014-Oct-29 23:34N 40°38' W 074°10'0 0.0
2014-Oct-29 22:34N 40°38' W 074°10'0 0.0
2014-Oct-29 21:34N 40°38' W 074°10'0 0.0
2014-Oct-29 20:34N 40°38' W 074°10'3 0.7
2014-Oct-29 16:30N 40°36' W 074°12'3 3.0
2014-Oct-29 15:33N 40°38' W 074°10'0 0.0
2014-Oct-29 14:34N 40°38' W 074°10'0 0.0
2014-Oct-29 13:33N 40°38' W 074°10'0 0.0
2014-Oct-29 12:34N 40°38' W 074°10'0 0.0
2014-Oct-29 11:34N 40°38' W 074°10'4 4.4
2014-Oct-29 10:33N 40°40' W 074°04'1 1.0
2014-Oct-29 09:34N 40°40' W 074°05'0 0.1
2014-Oct-29 08:33N 40°40' W 074°05'0 0.2
2014-Oct-29 07:34N 40°40' W 074°05'0 0.0
2014-Oct-29 06:34N 40°40' W 074°05'0 0.0
2014-Oct-29 05:34N 40°40' W 074°05'0 0.0
2014-Oct-29 04:34N 40°40' W 074°05'0 0.0
2014-Oct-29 03:34N 40°40' W 074°05'0 0.0
2014-Oct-29 02:34N 40°40' W 074°05'0 0.0
2014-Oct-29 01:34N 40°40' W 074°05'0 0.0
2014-Oct-29 00:34N 40°40' W 074°05'0 0.0
2014-Oct-28 23:34N 40°40' W 074°05'0 0.0
2014-Oct-28 22:34N 40°40' W 074°05'0 0.0
2014-Oct-28 21:34N 40°40' W 074°05'2 1.9
2014-Oct-28 20:34N 40°39' W 074°03'1 1.3
2014-Oct-28 19:34N 40°40' W 074°04'2 2.0
2014-Oct-28 18:34N 40°38' W 074°04'4 4.1
2014-Oct-28 17:34N 40°40' W 074°08'0 0.2
2014-Oct-28 16:34N 40°40' W 074°08'0 0.2
2014-Oct-28 15:34N 40°41' W 074°09'2 2.4
2014-Oct-28 14:34N 40°38' W 074°10'0 0.0
2014-Oct-28 13:34N 40°38' W 074°10'0 0.0
2014-Oct-28 12:34N 40°38' W 074°10'0 0.0
2014-Oct-28 11:34N 40°38' W 074°10'2 2.5
2014-Oct-28 10:33N 40°41' W 074°09'2 2.5
2014-Oct-28 09:34N 40°38' W 074°10'0 0.0
2014-Oct-28 08:33N 40°38' W 074°10'0 0.0
2014-Oct-28 07:34N 40°38' W 074°10'3 3.4
2014-Oct-28 06:34N 40°39' W 074°05'0 0.1
2014-Oct-28 05:34N 40°39' W 074°05'3 3.4
2014-Oct-28 04:33N 40°38' W 074°10'0 0.0
2014-Oct-28 03:34N 40°38' W 074°10'2 2.3
2014-Oct-28 02:34N 40°41' W 074°09'0 0.2
2014-Oct-28 01:34N 40°40' W 074°08'2 2.3
2014-Oct-28 00:34N 40°38' W 074°10'0 0.0
2014-Oct-27 23:34N 40°38' W 074°10'0 0.0
2014-Oct-27 22:34N 40°38' W 074°10'0 0.0
2014-Oct-27 21:34N 40°38' W 074°10'0 0.0
2014-Oct-27 20:32N 40°38' W 074°10'0 0.0
2014-Oct-27 19:24N 40°38' W 074°10'0 0.0
2014-Oct-27 18:30N 40°38' W 074°10'0 0.0
2014-Oct-27 17:34N 40°38' W 074°10'0 0.0
2014-Oct-27 16:34N 40°38' W 074°10'2 1.9
2014-Oct-27 15:33N 40°38' W 074°12'5 4.7
2014-Oct-27 14:34N 40°41' W 074°08'2 1.6
2014-Oct-27 13:28N 40°40' W 074°09'0 0.0
2014-Oct-27 12:20N 40°40' W 074°09'0 0.0
2014-Oct-27 11:32N 40°40' W 074°09'1 0.7
2014-Oct-27 10:33N 40°40' W 074°08'4 1.7
2014-Oct-27 08:17N 40°37' W 074°12'2 2.5
2014-Oct-27 07:33N 40°39' W 074°11'1 0.7
2014-Oct-27 06:34N 40°38' W 074°10'0 0.0
2014-Oct-27 05:34N 40°38' W 074°10'1 0.5
2014-Oct-27 04:32N 40°38' W 074°09'4 4.2
2014-Oct-27 03:33N 40°40' W 074°04'5 4.4
2014-Oct-27 02:32N 40°38' W 074°10'0 0.0
2014-Oct-27 01:33N 40°38' W 074°10'0 0.0
2014-Oct-27 00:33N 40°38' W 074°10'0 0.0
2014-Oct-26 23:33N 40°38' W 074°10'0 0.0
2014-Oct-26 22:34N 40°38' W 074°10'1 1.3
2014-Oct-26 21:34N 40°40' W 074°09'5 5.0
2014-Oct-26 20:34N 40°37' W 074°03'5 5.3
2014-Oct-26 19:33N 40°38' W 074°10'0 0.0
2014-Oct-26 18:34N 40°38' W 074°10'0 0.0
2014-Oct-26 17:34N 40°38' W 074°10'0 0.0
2014-Oct-26 16:33N 40°38' W 074°10'0 0.0
2014-Oct-26 15:34N 40°38' W 074°10'0 0.0
2014-Oct-26 14:34N 40°38' W 074°10'0 0.0
2014-Oct-26 13:33N 40°38' W 074°10'2 2.2
2014-Oct-26 12:34N 40°40' W 074°08'0 0.2
2014-Oct-26 11:34N 40°40' W 074°08'1 0.8
2014-Oct-26 10:33N 40°40' W 074°09'1 0.6
2014-Oct-26 09:33N 40°40' W 074°09'5 4.6
2014-Oct-26 08:34N 40°38' W 074°03'5 5.2
2014-Oct-26 07:34N 40°38' W 074°10'0 0.0
2014-Oct-26 06:34N 40°38' W 074°10'0 0.0
2014-Oct-26 05:34N 40°38' W 074°10'0 0.0
2014-Oct-26 04:34N 40°38' W 074°10'0 0.0
2014-Oct-26 03:34N 40°38' W 074°10'1 1.0
2014-Oct-26 02:33N 40°39' W 074°09'0 0.5
2014-Oct-26 01:33N 40°40' W 074°09'0 0.5
2014-Oct-26 00:34N 40°39' W 074°09'1 1.0
2014-Oct-25 23:34N 40°38' W 074°10'0 0.0
2014-Oct-25 22:33N 40°38' W 074°10'0 0.0
2014-Oct-25 21:33N 40°38' W 074°10'3 3.0
2014-Oct-25 20:33N 40°41' W 074°08'1 1.3
2014-Oct-25 19:32N 40°40' W 074°08'5 4.6
2014-Oct-25 18:28N 40°38' W 074°03'5 6.0
2014-Oct-25 17:33N 40°38' W 074°10'0 0.0
2014-Oct-25 16:32N 40°38' W 074°10'0 0.0
2014-Oct-25 15:34N 40°38' W 074°10'0 0.0
2014-Oct-25 14:28N 40°38' W 074°10'0 0.0
2014-Oct-25 13:32N 40°38' W 074°10'0 0.0
2014-Oct-25 12:34N 40°38' W 074°10'0 0.0
2014-Oct-25 11:34N 40°38' W 074°10'1 0.9
2014-Oct-25 10:34N 40°39' W 074°09'6 5.9
2014-Oct-25 09:29N 40°33' W 074°13'4 4.3
2014-Oct-25 08:33N 40°37' W 074°12'2 2.1
2014-Oct-25 07:34N 40°38' W 074°10'0 0.0
2014-Oct-25 06:33N 40°38' W 074°10'0 0.0
2014-Oct-25 05:34N 40°38' W 074°10'0 0.0
2014-Oct-25 04:33N 40°38' W 074°10'0 0.0
2014-Oct-25 03:34N 40°38' W 074°10'0 0.0
2014-Oct-25 02:33N 40°38' W 074°10'0 0.0
2014-Oct-25 01:34N 40°38' W 074°10'0 0.0
2014-Oct-24 23:33N 40°38' W 074°10'7 7.1
2014-Oct-24 22:34N 40°40' W 074°01'0 0.3
2014-Oct-24 21:34N 40°40' W 074°00'4 3.7
2014-Oct-24 20:34N 40°39' W 074°05'1 1.3
2014-Oct-24 19:33N 40°40' W 074°03'0 0.2
2014-Oct-24 18:34N 40°40' W 074°04'1 0.9
2014-Oct-24 17:34N 40°40' W 074°03'5 4.6
2014-Oct-24 16:33N 40°39' W 074°09'2 1.6
2014-Oct-24 15:34N 40°41' W 074°09'2 2.5
2014-Oct-24 14:34N 40°38' W 074°10'5 4.5
2014-Oct-24 13:33N 40°40' W 074°04'0 0.0
2014-Oct-24 12:34N 40°40' W 074°04'1 0.6
2014-Oct-24 11:34N 40°40' W 074°04'2 1.9
2014-Oct-24 10:34N 40°39' W 074°05'0 0.4
2014-Oct-24 09:33N 40°39' W 074°06'0 0.0
2014-Oct-24 08:33N 40°39' W 074°06'0 0.0
2014-Oct-24 06:32N 40°39' W 074°06'0 0.0
2014-Oct-24 05:32N 40°39' W 074°06'3 2.8
2014-Oct-24 04:34N 40°40' W 074°03'0 0.0
2014-Oct-24 03:34N 40°40' W 074°03'0 0.0
2014-Oct-24 02:34N 40°40' W 074°03'1 1.4
2014-Oct-24 01:34N 40°40' W 074°05'3 2.5
2014-Oct-24 00:34N 40°39' W 074°07'2 2.0
2014-Oct-23 23:33N 40°38' W 074°10'1 0.3
2014-Oct-23 21:34N 40°39' W 074°11'6 4.8
2014-Oct-23 20:18N 40°33' W 074°14'0 0.4
2014-Oct-23 19:33N 40°33' W 074°14'0 0.0
2014-Oct-23 18:19N 40°33' W 074°14'0 0.0
2014-Oct-23 17:32N 40°33' W 074°14'5 4.7
2014-Oct-23 16:30N 40°38' W 074°12'0 0.0
2014-Oct-23 15:29N 40°38' W 074°12'2 2.0
2014-Oct-23 14:34N 40°38' W 074°10'0 0.0
2014-Oct-23 13:33N 40°38' W 074°10'0 0.0
2014-Oct-23 12:34N 40°38' W 074°10'2 1.7
2014-Oct-23 11:34N 40°38' W 074°12'0 0.2
2014-Oct-23 10:34N 40°38' W 074°12'2 1.5
2014-Oct-23 09:33N 40°38' W 074°10'1 0.6
2014-Oct-23 08:33N 40°39' W 074°09'2 2.4
2014-Oct-23 07:33N 40°41' W 074°09'2 1.6
2014-Oct-23 06:34N 40°39' W 074°09'1 0.9
2014-Oct-23 05:19N 40°38' W 074°10'0 0.0
2014-Oct-23 04:33N 40°38' W 074°10'0 0.0
2014-Oct-23 03:06N 40°38' W 074°10'0 0.0
2014-Oct-23 02:28N 40°38' W 074°10'0 0.0
2014-Oct-23 01:34N 40°38' W 074°10'0 0.0
2014-Oct-23 00:33N 40°38' W 074°10'0 0.0
2014-Oct-22 23:33N 40°38' W 074°10'0 0.0
2014-Oct-22 22:33N 40°38' W 074°10'2 1.7
2014-Oct-22 21:33N 40°38' W 074°12'2 2.4
2014-Oct-22 20:33N 40°39' W 074°09'5 4.9
2014-Oct-22 19:34N 40°40' W 074°03'2 2.2
2014-Oct-22 18:34N 40°38' W 074°04'1 0.6
2014-Oct-22 17:34N 40°39' W 074°03'1 1.5
2014-Oct-22 16:34N 40°39' W 074°05'4 3.7
2014-Oct-22 15:34N 40°38' W 074°10'5 4.9
2014-Oct-22 14:33N 40°38' W 074°03'5 4.8
2014-Oct-22 13:34N 40°38' W 074°10'4 4.3
2014-Oct-22 12:34N 40°40' W 074°04'0 0.4
2014-Oct-22 11:34N 40°40' W 074°04'1 1.2
2014-Oct-22 10:33N 40°39' W 074°05'0 0.1
2014-Oct-22 09:34N 40°39' W 074°05'2 2.3
2014-Oct-22 08:34N 40°40' W 074°03'5 4.3
2014-Oct-22 07:29N 40°40' W 074°09'0 0.0
2014-Oct-22 06:34N 40°40' W 074°09'  

Dump ship's entire track history